createdAt,value
2022-11-15T00:00:08.270Z,99352.66
2022-11-15T00:00:44.930Z,99358.00
2022-11-15T00:01:21.843Z,99353.53
2022-11-15T00:01:58.530Z,99349.19
2022-11-15T00:02:36.231Z,99343.03
2022-11-15T00:03:12.685Z,99344.84
2022-11-15T00:03:49.720Z,99360.66
2022-11-15T00:04:26.241Z,99350.56
2022-11-15T00:05:04.275Z,99349.03
2022-11-15T00:05:40.784Z,99357.16
2022-11-15T00:06:17.437Z,99351.84
2022-11-15T00:06:53.791Z,99365.13
2022-11-15T00:07:54.082Z,99356.19
2022-11-15T00:08:26.411Z,99351.97
2022-11-15T00:09:03.388Z,99347.50
2022-11-15T00:09:44.793Z,99349.19
2022-11-15T00:10:23.356Z,99346.66
2022-11-15T00:11:03.330Z,99353.66
2022-11-15T00:11:40.637Z,99346.66
2022-11-15T00:12:18.836Z,99345.53
2022-11-15T00:12:55.944Z,99349.31
2022-11-15T00:13:33.475Z,99346.66
2022-11-15T00:14:11.277Z,99345.84
2022-11-15T00:14:48.978Z,99336.16
2022-11-15T00:15:30.878Z,99351.00
2022-11-15T00:16:07.554Z,99331.81
2022-11-15T00:16:45.665Z,99343.19
2022-11-15T00:17:24.370Z,99337.84
2022-11-15T00:18:02.354Z,99353.97
2022-11-15T00:18:40.445Z,99340.66
2022-11-15T00:19:18.874Z,99338.00
2022-11-15T00:19:56.617Z,99340.66
2022-11-15T00:20:34.664Z,99345.13
2022-11-15T00:21:13.534Z,99342.31
2022-11-15T00:21:51.234Z,99341.50
2022-11-15T00:22:29.526Z,99343.19
2022-11-15T00:23:06.940Z,99344.00
2022-11-15T00:23:45.969Z,99337.84
2022-11-15T00:24:24.097Z,99341.75
2022-11-15T00:25:02.381Z,99339.81
2022-11-15T00:25:40.529Z,99341.75
2022-11-15T00:26:18.811Z,99341.50
2022-11-15T00:26:57.856Z,99337.44
2022-11-15T00:27:35.786Z,99346.09
2022-11-15T00:28:13.716Z,99343.44
2022-11-15T00:28:51.347Z,99334.59
2022-11-15T00:29:29.262Z,99345.13
2022-11-15T00:30:09.511Z,99345.97
2022-11-15T00:30:47.433Z,99336.44
2022-11-15T00:31:25.296Z,99339.09
2022-11-15T00:32:01.982Z,99345.13
2022-11-15T00:32:38.976Z,99338.94
2022-11-15T00:33:17.409Z,99345.97
2022-11-15T00:33:55.289Z,99341.59
2022-11-15T00:34:32.211Z,99344.41
2022-11-15T00:35:09.145Z,99350.28
2022-11-15T00:35:46.809Z,99338.94
2022-11-15T00:36:25.633Z,99343.44
2022-11-15T00:37:02.823Z,99341.75
2022-11-15T00:37:40.633Z,99332.13
2022-11-15T00:38:18.492Z,99333.09
2022-11-15T00:38:56.776Z,99336.56
2022-11-15T00:39:43.377Z,99341.75
2022-11-15T00:40:24.819Z,99336.44
2022-11-15T00:41:06.428Z,99335.75
2022-11-15T00:41:46.896Z,99329.44
2022-11-15T00:42:24.839Z,99331.09
2022-11-15T00:43:01.652Z,99331.09
2022-11-15T00:43:39.597Z,99341.75
2022-11-15T00:44:17.490Z,99330.28
2022-11-15T00:44:55.847Z,99345.25
2022-11-15T00:45:34.106Z,99339.91
2022-11-15T00:46:11.902Z,99333.75
2022-11-15T00:46:49.917Z,99336.44
2022-11-15T00:47:27.800Z,99335.59
2022-11-15T00:48:05.533Z,99346.09
2022-11-15T00:48:44.134Z,99338.13
2022-11-15T00:49:22.504Z,99332.78
2022-11-15T00:50:00.802Z,99336.44
2022-11-15T00:50:38.706Z,99338.13
2022-11-15T00:51:17.213Z,99330.13
2022-11-15T00:51:55.869Z,99343.44
2022-11-15T00:52:33.742Z,99336.44
2022-11-15T00:53:11.669Z,99331.09
2022-11-15T00:53:50.328Z,99337.25
2022-11-15T00:54:28.721Z,99332.78
2022-11-15T00:55:05.961Z,99331.09
2022-11-15T00:55:45.090Z,99330.97
2022-11-15T00:56:23.199Z,99333.50
2022-11-15T00:57:01.758Z,99325.53
2022-11-15T00:57:40.977Z,99333.50
2022-11-15T00:58:19.438Z,99327.47
2022-11-15T00:58:57.342Z,99330.03
2022-11-15T00:59:35.399Z,99335.19
2022-11-15T01:00:12.429Z,99327.22
2022-11-15T01:00:51.003Z,99329.16
2022-11-15T01:01:29.323Z,99327.34
2022-11-15T01:02:07.313Z,99333.50
2022-11-15T01:02:44.873Z,99332.53
2022-11-15T01:03:23.175Z,99327.34
2022-11-15T01:04:01.680Z,99331.41
2022-11-15T01:04:39.840Z,99330.84
2022-11-15T01:05:17.596Z,99332.53
2022-11-15T01:05:55.260Z,99334.75
2022-11-15T01:06:33.453Z,99337.41
2022-11-15T01:07:11.455Z,99331.09
2022-11-15T01:07:49.959Z,99330.13
2022-11-15T01:08:27.968Z,99330.13
2022-11-15T01:09:05.947Z,99328.28
2022-11-15T01:09:43.938Z,99336.25
2022-11-15T01:10:20.916Z,99327.31
2022-11-15T01:10:59.267Z,99332.34
2022-11-15T01:11:37.485Z,99333.34
2022-11-15T01:12:15.921Z,99329.16
2022-11-15T01:12:52.478Z,99327.75
2022-11-15T01:13:29.601Z,99326.63
2022-11-15T01:14:06.781Z,99332.94
2022-11-15T01:14:43.577Z,99330.28
2022-11-15T01:15:20.520Z,99325.78
2022-11-15T01:15:57.381Z,99328.59
2022-11-15T01:16:34.812Z,99329.44
2022-11-15T01:17:11.326Z,99322.16
2022-11-15T01:17:49.335Z,99333.63
2022-11-15T01:18:25.529Z,99327.47
2022-11-15T01:19:02.217Z,99331.81
2022-11-15T01:19:38.982Z,99331.81
2022-11-15T01:20:16.021Z,99317.66
2022-11-15T01:20:54.539Z,99322.88
2022-11-15T01:21:32.206Z,99330.03
2022-11-15T01:22:08.824Z,99321.19
2022-11-15T01:22:45.645Z,99318.63
2022-11-15T01:23:21.842Z,99325.78
2022-11-15T01:23:58.429Z,99322.16
2022-11-15T01:24:35.013Z,99317.66
2022-11-15T01:25:12.229Z,99315.84
2022-11-15T01:25:48.777Z,99320.22
2022-11-15T01:26:25.510Z,99318.38
2022-11-15T01:27:02.799Z,99322.03
2022-11-15T01:27:39.467Z,99315.72
2022-11-15T01:28:15.858Z,99330.84
2022-11-15T01:28:54.078Z,99330.03
2022-11-15T01:29:30.458Z,99327.22
2022-11-15T01:30:07.809Z,99321.88
2022-11-15T01:30:44.284Z,99320.22
2022-11-15T01:31:21.054Z,99329.16
2022-11-15T01:31:57.581Z,99327.47
2022-11-15T01:32:34.287Z,99331.81
2022-11-15T01:33:11.088Z,99322.16
2022-11-15T01:33:47.352Z,99325.78
2022-11-15T01:34:23.957Z,99324.13
2022-11-15T01:35:00.439Z,99327.47
2022-11-15T01:35:37.185Z,99325.78
2022-11-15T01:36:18.584Z,99335.59
2022-11-15T01:36:56.202Z,99325.78
2022-11-15T01:37:34.213Z,99317.81
2022-11-15T01:38:12.124Z,99322.03
2022-11-15T01:38:50.547Z,99340.78
2022-11-15T01:39:28.730Z,99328.44
2022-11-15T01:40:06.719Z,99324.97
2022-11-15T01:40:45.168Z,99323.13
2022-11-15T01:41:21.950Z,99318.81
2022-11-15T01:41:59.889Z,99314.47
2022-11-15T01:42:39.541Z,99317.94
2022-11-15T01:43:28.593Z,99316.16
2022-11-15T01:44:22.759Z,99320.63
2022-11-15T01:45:01.203Z,99314.47
2022-11-15T01:45:41.762Z,99310.97
2022-11-15T01:46:16.786Z,99314.47
2022-11-15T01:46:54.965Z,99316.44
2022-11-15T01:47:35.021Z,99317.94
2022-11-15T01:48:13.599Z,99316.84
2022-11-15T01:48:52.100Z,99317.66
2022-11-15T01:49:30.040Z,99316.16
2022-11-15T01:50:09.299Z,99323.13
2022-11-15T01:50:45.708Z,99313.50
2022-11-15T01:51:22.532Z,99311.81
2022-11-15T01:51:59.629Z,99315.44
2022-11-15T01:52:37.375Z,99319.78
2022-11-15T01:53:16.878Z,99313.78
2022-11-15T01:53:54.231Z,99307.47
2022-11-15T01:54:32.244Z,99320.75
2022-11-15T01:55:10.254Z,99307.59
2022-11-15T01:55:48.204Z,99309.28
2022-11-15T01:56:25.607Z,99308.31
2022-11-15T01:57:11.152Z,99306.47
2022-11-15T01:57:47.774Z,99309.97
2022-11-15T01:58:24.930Z,99309.97
2022-11-15T01:59:01.478Z,99316.28
2022-11-15T01:59:38.162Z,99306.47
2022-11-15T02:00:14.777Z,99307.31
2022-11-15T02:00:51.526Z,99302.84
2022-11-15T02:01:28.204Z,99300.34
2022-11-15T02:02:06.650Z,99297.53
2022-11-15T02:02:42.969Z,99298.50
2022-11-15T02:03:19.654Z,99299.31
2022-11-15T02:03:57.498Z,99303.81
2022-11-15T02:04:36.274Z,99295.00
2022-11-15T02:05:13.551Z,99295.00
2022-11-15T02:05:50.191Z,99297.66
2022-11-15T02:06:26.479Z,99299.47
2022-11-15T02:07:03.543Z,99299.47
2022-11-15T02:07:40.039Z,99295.16
2022-11-15T02:08:16.696Z,99297.66
2022-11-15T02:08:53.969Z,99297.81
2022-11-15T02:09:31.113Z,99296.13
2022-11-15T02:10:13.094Z,99300.63
2022-11-15T02:10:50.777Z,99293.19
2022-11-15T02:11:28.747Z,99289.84
2022-11-15T02:12:07.819Z,99299.47
2022-11-15T02:12:44.645Z,99301.00
2022-11-15T02:13:22.692Z,99293.88
2022-11-15T02:13:59.823Z,99294.88
2022-11-15T02:14:37.490Z,99294.88
2022-11-15T02:15:16.333Z,99292.22
2022-11-15T02:16:03.386Z,99302.00
2022-11-15T02:16:43.608Z,99287.72
2022-11-15T02:17:18.717Z,99289.38
2022-11-15T02:18:00.293Z,99295.53
2022-11-15T02:18:37.444Z,99289.25
2022-11-15T02:19:19.424Z,99298.22
2022-11-15T02:20:06.549Z,99293.88
2022-11-15T02:21:00.625Z,99295.00
2022-11-15T02:21:39.599Z,99300.34
2022-11-15T02:22:14.363Z,99296.00
2022-11-15T02:22:55.301Z,99291.50
2022-11-15T02:23:33.297Z,99301.16
2022-11-15T02:24:11.418Z,99298.50
2022-11-15T02:24:55.361Z,99299.47
2022-11-15T02:25:35.770Z,99294.16
2022-11-15T02:26:21.580Z,99293.19
2022-11-15T02:27:23.318Z,99296.66
2022-11-15T02:27:59.033Z,99298.50
2022-11-15T02:28:36.841Z,99295.16
2022-11-15T02:29:18.178Z,99299.47
2022-11-15T02:30:07.170Z,99292.50
2022-11-15T02:31:14.262Z,99295.16
2022-11-15T02:32:00.628Z,99296.97
2022-11-15T02:32:51.018Z,99290.81
2022-11-15T02:34:01.010Z,99290.81
2022-11-15T02:34:39.330Z,99292.34
2022-11-15T02:35:35.043Z,99292.50
2022-11-15T02:36:16.887Z,99288.00
2022-11-15T02:36:53.533Z,99290.81
2022-11-15T02:37:33.358Z,99292.50
2022-11-15T02:38:16.002Z,99287.19
2022-11-15T02:39:03.172Z,99292.66
2022-11-15T02:39:40.244Z,99294.31
2022-11-15T02:40:15.559Z,99288.16
2022-11-15T02:41:01.585Z,99288.31
2022-11-15T02:41:43.662Z,99287.19
2022-11-15T02:42:27.540Z,99292.50
2022-11-15T02:43:08.292Z,99288.84
2022-11-15T02:43:43.661Z,99293.19
2022-11-15T02:44:30.461Z,99290.53
2022-11-15T02:45:07.859Z,99289.69
2022-11-15T02:45:45.355Z,99281.56
2022-11-15T02:46:24.249Z,99283.50
2022-11-15T02:47:09.836Z,99282.41
2022-11-15T02:47:46.378Z,99282.41
2022-11-15T02:48:23.418Z,99288.38
2022-11-15T02:49:01.791Z,99280.41
2022-11-15T02:49:39.866Z,99285.06
2022-11-15T02:50:16.449Z,99278.72
2022-11-15T02:50:54.094Z,99277.06
2022-11-15T02:51:32.211Z,99275.25
2022-11-15T02:52:10.750Z,99274.41
2022-11-15T02:52:50.461Z,99273.41
2022-11-15T02:53:32.066Z,99267.25
2022-11-15T02:54:09.328Z,99276.25
2022-11-15T02:54:47.011Z,99269.25
2022-11-15T02:55:32.742Z,99270.91
2022-11-15T02:56:10.104Z,99270.91
2022-11-15T02:56:47.390Z,99272.72
2022-11-15T02:57:25.392Z,99265.44
2022-11-15T02:58:09.340Z,99265.31
2022-11-15T02:58:51.710Z,99267.97
2022-11-15T02:59:32.547Z,99266.28
2022-11-15T03:00:18.465Z,99266.44
2022-11-15T03:00:58.056Z,99269.91
2022-11-15T03:01:44.833Z,99270.91
2022-11-15T03:02:26.289Z,99263.91
2022-11-15T03:03:20.214Z,99264.88
2022-11-15T03:03:58.735Z,99272.03
2022-11-15T03:04:51.785Z,99267.56
2022-11-15T03:05:26.981Z,99270.91
2022-11-15T03:06:04.453Z,99270.34
2022-11-15T03:06:46.707Z,99266.72
2022-11-15T03:07:23.632Z,99266.56
2022-11-15T03:08:04.648Z,99266.56
2022-11-15T03:08:42.238Z,99272.56
2022-11-15T03:09:36.110Z,99265.59
2022-11-15T03:10:13.937Z,99269.25
2022-11-15T03:10:52.309Z,99267.41
2022-11-15T03:11:28.677Z,99269.25
2022-11-15T03:12:19.699Z,99269.91
2022-11-15T03:13:11.021Z,99270.91
2022-11-15T03:14:02.783Z,99270.91
2022-11-15T03:14:40.253Z,99269.91
2022-11-15T03:15:22.763Z,99269.09
2022-11-15T03:16:06.696Z,99262.66
2022-11-15T03:16:48.863Z,99279.59
2022-11-15T03:17:30.728Z,99264.59
2022-11-15T03:18:29.198Z,99260.00
2022-11-15T03:19:20.893Z,99265.31
2022-11-15T03:19:57.428Z,99267.41
2022-11-15T03:20:35.270Z,99262.22
2022-11-15T03:21:11.905Z,99269.09
2022-11-15T03:21:48.764Z,99265.59
2022-11-15T03:22:26.187Z,99266.56
2022-11-15T03:23:09.169Z,99257.78
2022-11-15T03:23:45.469Z,99262.22
2022-11-15T03:24:25.836Z,99256.91
2022-11-15T03:25:02.542Z,99261.94
2022-11-15T03:25:41.474Z,99259.28
2022-11-15T03:26:19.551Z,99262.75
2022-11-15T03:26:56.503Z,99269.25
2022-11-15T03:27:34.436Z,99268.25
2022-11-15T03:28:12.521Z,99261.25
2022-11-15T03:28:53.628Z,99269.25
2022-11-15T03:29:31.015Z,99267.25
2022-11-15T03:30:07.689Z,99273.59
2022-11-15T03:30:44.171Z,99273.72
2022-11-15T03:31:20.635Z,99279.88
2022-11-15T03:32:01.213Z,99276.38
2022-11-15T03:32:41.467Z,99283.50
2022-11-15T03:33:19.103Z,99284.38
2022-11-15T03:33:57.158Z,99274.56
2022-11-15T03:34:34.879Z,99279.88
2022-11-15T03:35:10.434Z,99284.53
2022-11-15T03:35:47.910Z,99272.56
2022-11-15T03:36:24.583Z,99270.91
2022-11-15T03:37:02.503Z,99281.56
2022-11-15T03:37:40.916Z,99277.22
2022-11-15T03:38:12.267Z,99283.50
2022-11-15T03:38:43.695Z,99281.56
2022-11-15T03:39:20.295Z,99280.72
2022-11-15T03:39:51.958Z,99285.88
2022-11-15T03:40:25.299Z,99279.59
2022-11-15T03:40:59.215Z,99290.13
2022-11-15T03:41:53.464Z,99277.91
2022-11-15T03:42:36.789Z,99292.22
2022-11-15T03:43:10.785Z,99279.59
2022-11-15T03:43:47.450Z,99282.41
2022-11-15T03:44:32.823Z,99288.53
2022-11-15T03:45:10.149Z,99279.88
2022-11-15T03:46:01.713Z,99280.56
2022-11-15T03:46:33.687Z,99282.13
2022-11-15T03:47:07.435Z,99281.28
2022-11-15T03:47:42.785Z,99271.50
2022-11-15T03:48:14.928Z,99279.59
2022-11-15T03:48:53.179Z,99284.03
2022-11-15T03:49:28.740Z,99288.69
2022-11-15T03:50:04.357Z,99281.56
2022-11-15T03:50:35.622Z,99275.38
2022-11-15T03:51:06.987Z,99269.38
2022-11-15T03:51:38.309Z,99277.22
2022-11-15T03:52:09.575Z,99279.88
2022-11-15T03:52:41.049Z,99277.91
2022-11-15T03:53:12.512Z,99274.56
2022-11-15T03:53:43.781Z,99272.72
2022-11-15T03:54:15.038Z,99279.19
2022-11-15T03:54:53.561Z,99271.91
2022-11-15T03:55:24.868Z,99270.91
2022-11-15T03:55:56.148Z,99277.06
2022-11-15T03:56:27.468Z,99277.75
2022-11-15T03:56:58.801Z,99273.28
2022-11-15T03:57:30.065Z,99279.59
2022-11-15T03:58:01.504Z,99272.56
2022-11-15T03:58:32.773Z,99269.25
2022-11-15T03:59:04.034Z,99263.91
2022-11-15T03:59:35.330Z,99268.25
2022-11-15T04:00:06.855Z,99271.75
2022-11-15T04:00:38.129Z,99268.94
2022-11-15T04:01:09.511Z,99263.63
2022-11-15T04:01:40.920Z,99265.44
2022-11-15T04:02:12.431Z,99258.31
2022-11-15T04:02:43.729Z,99252.97
2022-11-15T04:03:14.990Z,99258.31
2022-11-15T04:03:46.284Z,99258.31
2022-11-15T04:04:17.537Z,99256.34
2022-11-15T04:04:48.824Z,99249.34
2022-11-15T04:05:20.142Z,99256.34
2022-11-15T04:05:51.422Z,99249.34
2022-11-15T04:06:22.679Z,99249.63
2022-11-15T04:06:54.030Z,99255.63
2022-11-15T04:07:25.393Z,99249.34
2022-11-15T04:07:56.982Z,99249.34
2022-11-15T04:08:28.510Z,99247.53
2022-11-15T04:08:59.771Z,99251.84
2022-11-15T04:09:31.073Z,99251.03
2022-11-15T04:10:02.449Z,99248.38
2022-11-15T04:10:33.792Z,99248.38
2022-11-15T04:11:05.086Z,99250.31
2022-11-15T04:11:36.341Z,99245.00
2022-11-15T04:12:07.595Z,99241.22
2022-11-15T04:12:39.872Z,99246.53
2022-11-15T04:13:11.179Z,99245.72
2022-11-15T04:13:42.477Z,99247.41
2022-11-15T04:14:13.765Z,99247.41
2022-11-15T04:14:45.081Z,99247.53
2022-11-15T04:15:17.270Z,99240.38
2022-11-15T04:15:48.573Z,99248.22
2022-11-15T04:16:19.876Z,99249.03
2022-11-15T04:16:51.155Z,99240.38
2022-11-15T04:17:22.441Z,99251.16
2022-11-15T04:17:54.468Z,99244.03
2022-11-15T04:18:25.712Z,99242.34
2022-11-15T04:18:57.048Z,99242.34
2022-11-15T04:19:28.333Z,99242.50
2022-11-15T04:19:59.605Z,99243.31
2022-11-15T04:20:31.161Z,99240.81
2022-11-15T04:21:02.483Z,99237.47
2022-11-15T04:21:33.735Z,99251.44
2022-11-15T04:22:05.070Z,99240.66
2022-11-15T04:22:36.335Z,99244.31
2022-11-15T04:23:08.409Z,99240.66
2022-11-15T04:23:39.712Z,99241.47
2022-11-15T04:24:11.026Z,99241.66
2022-11-15T04:24:42.372Z,99239.81
2022-11-15T04:25:13.693Z,99245.16
2022-11-15T04:25:44.966Z,99238.81
2022-11-15T04:26:17.066Z,99242.34
2022-11-15T04:26:48.363Z,99237.84
2022-11-15T04:27:19.649Z,99246.53
2022-11-15T04:27:50.930Z,99240.38
2022-11-15T04:28:22.301Z,99240.38
2022-11-15T04:28:53.602Z,99245.72
2022-11-15T04:29:24.868Z,99240.50
2022-11-15T04:29:56.179Z,99236.03
2022-11-15T04:30:27.494Z,99239.00
2022-11-15T04:30:58.774Z,99237.03
2022-11-15T04:31:30.063Z,99239.69
2022-11-15T04:32:04.863Z,99237.84
2022-11-15T04:32:36.188Z,99239.56
2022-11-15T04:33:07.448Z,99244.72
2022-11-15T04:33:38.748Z,99240.38
2022-11-15T04:34:10.021Z,99232.41
2022-11-15T04:34:41.280Z,99243.16
2022-11-15T04:35:12.579Z,99238.56
2022-11-15T04:35:43.937Z,99244.88
2022-11-15T04:36:15.254Z,99239.41
2022-11-15T04:36:46.580Z,99239.41
2022-11-15T04:37:17.866Z,99240.38
2022-11-15T04:37:49.648Z,99249.91
2022-11-15T04:38:21.044Z,99248.91
2022-11-15T04:38:52.323Z,99239.25
2022-11-15T04:39:23.583Z,99240.38
2022-11-15T04:39:54.885Z,99243.06
2022-11-15T04:40:26.179Z,99243.06
2022-11-15T04:40:57.474Z,99244.88
2022-11-15T04:41:28.789Z,99241.22
2022-11-15T04:42:00.080Z,99238.69
2022-11-15T04:42:31.353Z,99240.38
2022-11-15T04:43:04.195Z,99251.03
2022-11-15T04:43:35.767Z,99246.53
2022-11-15T04:44:07.437Z,99246.53
2022-11-15T04:44:38.782Z,99240.50
2022-11-15T04:45:10.486Z,99242.34
2022-11-15T04:45:41.788Z,99242.22
2022-11-15T04:46:13.165Z,99245.72
2022-11-15T04:46:44.461Z,99246.38
2022-11-15T04:47:15.755Z,99248.38
2022-11-15T04:47:47.232Z,99242.06
2022-11-15T04:48:18.553Z,99241.22
2022-11-15T04:48:52.067Z,99241.22
2022-11-15T04:49:26.764Z,99248.22
2022-11-15T04:49:58.022Z,99248.22
2022-11-15T04:50:29.289Z,99245.72
2022-11-15T04:51:00.592Z,99250.31
2022-11-15T04:51:31.889Z,99249.63
2022-11-15T04:52:03.188Z,99257.31
2022-11-15T04:52:34.463Z,99245.00
2022-11-15T04:53:05.710Z,99235.34
2022-11-15T04:53:36.971Z,99244.31
2022-11-15T04:54:08.235Z,99242.63
2022-11-15T04:54:39.494Z,99241.66
2022-11-15T04:55:11.001Z,99247.97
2022-11-15T04:55:44.937Z,99246.97
2022-11-15T04:56:16.247Z,99246.97
2022-11-15T04:56:47.571Z,99242.63
2022-11-15T04:57:18.880Z,99239.97
2022-11-15T04:57:57.650Z,99239.81
2022-11-15T04:58:28.902Z,99239.97
2022-11-15T04:59:00.168Z,99229.34
2022-11-15T04:59:31.431Z,99233.69
2022-11-15T05:00:04.196Z,99231.84
2022-11-15T05:00:35.984Z,99243.16
2022-11-15T05:01:10.597Z,99233.69
2022-11-15T05:01:44.894Z,99235.34
2022-11-15T05:02:16.594Z,99235.34
2022-11-15T05:02:47.877Z,99246.13
2022-11-15T05:03:19.139Z,99239.00
2022-11-15T05:03:50.449Z,99239.00
2022-11-15T05:04:21.751Z,99239.81
2022-11-15T05:04:53.017Z,99239.00
2022-11-15T05:05:24.673Z,99241.66
2022-11-15T05:05:55.909Z,99240.81
2022-11-15T05:06:27.208Z,99233.13
2022-11-15T05:06:58.669Z,99242.78
2022-11-15T05:07:30.055Z,99242.94
2022-11-15T05:08:01.344Z,99230.47
2022-11-15T05:08:32.618Z,99238.44
2022-11-15T05:09:03.907Z,99231.31
2022-11-15T05:09:35.199Z,99237.31
2022-11-15T05:10:06.560Z,99239.97
2022-11-15T05:10:37.809Z,99232.00
2022-11-15T05:11:09.105Z,99233.97
2022-11-15T05:11:40.563Z,99236.63
2022-11-15T05:12:11.886Z,99239.28
2022-11-15T05:12:43.204Z,99235.63
2022-11-15T05:13:14.439Z,99224.31
2022-11-15T05:13:45.701Z,99235.94
2022-11-15T05:14:17.002Z,99228.81
2022-11-15T05:14:48.264Z,99232.28
2022-11-15T05:15:19.564Z,99229.63
2022-11-15T05:15:50.834Z,99229.94
2022-11-15T05:16:22.143Z,99233.25
2022-11-15T05:16:53.412Z,99229.47
2022-11-15T05:17:24.692Z,99229.63
2022-11-15T05:17:59.462Z,99236.78
2022-11-15T05:18:30.741Z,99237.47
2022-11-15T05:19:02.027Z,99232.97
2022-11-15T05:19:33.334Z,99245.16
2022-11-15T05:20:04.778Z,99246.97
2022-11-15T05:20:36.030Z,99241.25
2022-11-15T05:21:07.484Z,99238.13
2022-11-15T05:21:38.748Z,99237.47
2022-11-15T05:22:10.008Z,99238.44
2022-11-15T05:22:41.321Z,99241.97
2022-11-15T05:23:12.588Z,99241.97
2022-11-15T05:23:43.849Z,99238.44
2022-11-15T05:24:15.105Z,99240.94
2022-11-15T05:24:46.369Z,99241.81
2022-11-15T05:25:17.637Z,99247.13
2022-11-15T05:25:48.906Z,99239.28
2022-11-15T05:26:20.188Z,99253.56
2022-11-15T05:26:51.486Z,99241.81
2022-11-15T05:27:22.737Z,99241.97
2022-11-15T05:27:54.003Z,99243.75
2022-11-15T05:28:25.298Z,99239.44
2022-11-15T05:28:56.972Z,99248.25
2022-11-15T05:29:28.274Z,99243.75
2022-11-15T05:29:59.565Z,99248.09
2022-11-15T05:30:30.831Z,99242.63
2022-11-15T05:31:02.510Z,99247.97
2022-11-15T05:31:33.813Z,99249.94
2022-11-15T05:32:06.014Z,99249.63
2022-11-15T05:32:37.321Z,99253.94
2022-11-15T05:33:08.602Z,99245.28
2022-11-15T05:33:40.103Z,99244.31
2022-11-15T05:34:11.349Z,99248.09
2022-11-15T05:34:42.642Z,99251.59
2022-11-15T05:35:16.063Z,99242.78
2022-11-15T05:35:47.871Z,99248.25
2022-11-15T05:36:29.765Z,99240.94
2022-11-15T05:37:01.075Z,99256.91
2022-11-15T05:37:32.330Z,99255.94
2022-11-15T05:38:03.711Z,99246.28
2022-11-15T05:38:35.001Z,99245.59
2022-11-15T05:39:08.932Z,99256.09
2022-11-15T05:39:40.538Z,99244.63
2022-11-15T05:40:11.802Z,99241.97
2022-11-15T05:40:43.111Z,99239.28
2022-11-15T05:41:14.373Z,99244.47
2022-11-15T05:41:47.233Z,99245.59
2022-11-15T05:42:18.533Z,99243.91
2022-11-15T05:42:49.790Z,99236.78
2022-11-15T05:43:21.147Z,99240.28
2022-11-15T05:43:52.448Z,99240.94
2022-11-15T05:44:23.877Z,99243.59
2022-11-15T05:44:55.169Z,99232.00
2022-11-15T05:45:27.139Z,99238.13
2022-11-15T05:45:58.629Z,99238.28
2022-11-15T05:46:29.896Z,99239.28
2022-11-15T05:47:01.230Z,99236.50
2022-11-15T05:47:32.492Z,99243.47
2022-11-15T05:48:05.538Z,99237.31
2022-11-15T05:48:37.002Z,99240.81
2022-11-15T05:49:08.421Z,99245.28
2022-11-15T05:49:39.741Z,99230.16
2022-11-15T05:50:14.781Z,99251.44
2022-11-15T05:50:46.336Z,99235.47
2022-11-15T05:51:17.690Z,99236.34
2022-11-15T05:51:49.029Z,99249.47
2022-11-15T05:52:21.255Z,99232.00
2022-11-15T05:52:52.532Z,99236.34
2022-11-15T05:53:23.950Z,99237.31
2022-11-15T05:53:55.789Z,99242.63
2022-11-15T05:54:27.073Z,99235.63
2022-11-15T05:54:58.783Z,99237.47
2022-11-15T05:55:30.122Z,99229.63
2022-11-15T05:56:01.425Z,99234.94
2022-11-15T05:56:32.687Z,99231.47
2022-11-15T05:57:04.773Z,99240.41
2022-11-15T05:57:36.068Z,99235.94
2022-11-15T05:58:07.363Z,99232.44
2022-11-15T05:58:38.638Z,99227.94
2022-11-15T05:59:10.024Z,99230.59
2022-11-15T05:59:41.363Z,99234.13
2022-11-15T06:00:12.996Z,99233.25
2022-11-15T06:00:44.300Z,99228.66
2022-11-15T06:01:15.996Z,99233.13
2022-11-15T06:01:47.293Z,99226.00
2022-11-15T06:02:18.699Z,99230.47
2022-11-15T06:02:49.949Z,99235.63
2022-11-15T06:03:21.227Z,99239.00
2022-11-15T06:03:52.518Z,99234.66
2022-11-15T06:04:23.843Z,99236.63
2022-11-15T06:04:55.227Z,99237.47
2022-11-15T06:05:26.540Z,99226.97
2022-11-15T06:05:57.838Z,99233.97
2022-11-15T06:06:29.378Z,99240.13
2022-11-15T06:07:00.668Z,99239.28
2022-11-15T06:07:32.066Z,99240.94
2022-11-15T06:08:03.478Z,99232.16
2022-11-15T06:08:34.741Z,99233.97
2022-11-15T06:09:06.125Z,99240.13
2022-11-15T06:09:37.441Z,99234.66
2022-11-15T06:10:09.131Z,99235.63
2022-11-15T06:10:40.437Z,99241.66
2022-11-15T06:11:11.736Z,99235.47
2022-11-15T06:11:43.032Z,99242.63
2022-11-15T06:12:14.326Z,99237.31
2022-11-15T06:12:45.653Z,99232.81
2022-11-15T06:13:16.908Z,99237.47
2022-11-15T06:13:48.208Z,99237.31
2022-11-15T06:14:19.491Z,99243.47
2022-11-15T06:14:50.775Z,99231.16
2022-11-15T06:15:22.098Z,99242.78
2022-11-15T06:15:56.051Z,99234.66
2022-11-15T06:16:27.352Z,99242.50
2022-11-15T06:16:58.651Z,99242.63
2022-11-15T06:17:29.957Z,99243.47
2022-11-15T06:18:01.459Z,99239.00
2022-11-15T06:18:33.190Z,99240.81
2022-11-15T06:19:04.455Z,99243.47
2022-11-15T06:19:35.754Z,99240.94
2022-11-15T06:20:07.238Z,99239.97
2022-11-15T06:20:38.536Z,99247.28
2022-11-15T06:21:09.873Z,99242.63
2022-11-15T06:21:41.252Z,99246.28
2022-11-15T06:22:12.560Z,99244.47
2022-11-15T06:22:43.846Z,99248.94
2022-11-15T06:23:15.145Z,99250.91
2022-11-15T06:23:46.428Z,99242.94
2022-11-15T06:24:17.764Z,99249.22
2022-11-15T06:24:49.020Z,99249.22
2022-11-15T06:25:20.316Z,99250.09
2022-11-15T06:25:51.638Z,99257.34
2022-11-15T06:26:22.925Z,99253.88
2022-11-15T06:26:54.255Z,99257.22
2022-11-15T06:27:25.543Z,99258.06
2022-11-15T06:27:57.241Z,99256.38
2022-11-15T06:28:31.871Z,99259.03
2022-11-15T06:29:03.822Z,99254.41
2022-11-15T06:29:35.127Z,99257.91
2022-11-15T06:30:06.560Z,99256.38
2022-11-15T06:30:37.860Z,99254.53
2022-11-15T06:31:09.856Z,99259.19
2022-11-15T06:31:41.173Z,99256.38
2022-11-15T06:32:12.440Z,99263.25
2022-11-15T06:32:43.726Z,99258.91
2022-11-15T06:33:15.009Z,99255.41
2022-11-15T06:33:47.160Z,99264.06
2022-11-15T06:34:18.443Z,99261.69
2022-11-15T06:34:49.732Z,99266.88
2022-11-15T06:35:21.005Z,99268.56
2022-11-15T06:35:52.273Z,99264.88
2022-11-15T06:36:23.572Z,99268.56
2022-11-15T06:36:54.831Z,99271.22
2022-11-15T06:37:26.130Z,99266.88
2022-11-15T06:37:57.443Z,99274.84
2022-11-15T06:38:28.726Z,99269.53
2022-11-15T06:38:59.993Z,99268.72
2022-11-15T06:39:31.287Z,99261.41
2022-11-15T06:40:02.602Z,99268.56
2022-11-15T06:40:34.711Z,99274.84
2022-11-15T06:41:07.199Z,99270.50
2022-11-15T06:41:38.480Z,99267.16
2022-11-15T06:42:09.801Z,99265.19
2022-11-15T06:42:41.119Z,99267.03
2022-11-15T06:43:12.418Z,99270.50
2022-11-15T06:43:43.701Z,99268.72
2022-11-15T06:44:14.984Z,99269.53
2022-11-15T06:44:46.279Z,99270.34
2022-11-15T06:45:17.562Z,99266.03
2022-11-15T06:45:48.836Z,99270.34
2022-11-15T06:46:20.135Z,99276.53
2022-11-15T06:46:51.405Z,99276.53
2022-11-15T06:47:22.688Z,99276.53
2022-11-15T06:47:53.984Z,99269.38
2022-11-15T06:48:25.223Z,99271.22
2022-11-15T06:48:56.520Z,99278.34
2022-11-15T06:49:27.799Z,99279.06
2022-11-15T06:49:59.105Z,99274.69
2022-11-15T06:50:30.404Z,99280.84
2022-11-15T06:51:02.030Z,99278.19
2022-11-15T06:51:33.298Z,99276.38
2022-11-15T06:52:04.668Z,99280.84
2022-11-15T06:52:35.984Z,99282.53
2022-11-15T06:53:07.301Z,99283.22
2022-11-15T06:53:38.591Z,99281.56
2022-11-15T06:54:09.887Z,99287.72
2022-11-15T06:54:41.165Z,99289.53
2022-11-15T06:55:12.445Z,99284.22